Lovundjenta — LK7468 — position and weather

sailwx.info

Track history (hours):
 
Tides and Currents Weather Stations Pressure Air Temp Water Temp Dewpoint Dewpoint Depression Visibility Wind Speed Wind Dir Waves Ship Positions

Lovundjenta

Last reported at 2016-Jul-17 15:33 UTC. Time now 2016-Jul-29 12:07 UTC.
Position N 66°14' E 012°35'.
Warning: this ship's position is 11 days out of date.

Length 15 m.

MMSI: 257788900.

Date/timePositionNaut miles runAvg speedWind from/ knotsBaromVisibWave heightAir tempDewpointWater temp
2016-Jul-17 15:33N 66°14' E 012°35'  
2016-Jul-11 15:27N 66°28' E 012°13'4 4.7
2016-Jul-11 14:31N 66°30' E 012°04'1 1.1
2016-Jul-11 13:32N 66°30' E 012°06'0 0.0
2016-Jul-11 12:32N 66°30' E 012°06'3 0.1
2016-Jul-10 10:06N 66°28' E 012°13'3 5.7
2016-Jul-10 09:31N 66°30' E 012°06'0 0.0
2016-Jul-09 22:32N 66°30' E 012°06'3 0.4
2016-Jul-09 15:30N 66°28' E 012°12'7 5.5
2016-Jul-09 14:16N 66°23' E 012°22'1012.0
2016-Jul-09 13:27N 66°30' E 012°06'1 0.6
2016-Jul-09 12:33N 66°31' E 012°07'1 1.0
2016-Jul-09 11:19N 66°32' E 012°07'0 0.3
2016-Jul-09 10:08N 66°32' E 012°07'2 3.7
2016-Jul-09 09:34N 66°30' E 012°06'0 0.0
2016-Jul-09 00:33N 66°30' E 012°06'0 0.0
2016-Jul-08 23:31N 66°30' E 012°06'0 0.1
2016-Jul-08 22:33N 66°30' E 012°06'0 0.0
2016-Jul-08 21:32N 66°30' E 012°06'3 0.2
2016-Jul-08 01:26N 66°30' E 012°14'3 3.6
2016-Jul-08 00:33N 66°30' E 012°06'0 0.0
2016-Jul-07 23:33N 66°30' E 012°06'0 0.1
2016-Jul-07 22:33N 66°30' E 012°06'0 0.1
2016-Jul-07 21:32N 66°30' E 012°06'0 0.0
2016-Jul-07 20:32N 66°30' E 012°06'0 0.0
2016-Jul-07 19:32N 66°30' E 012°06'0 0.0
2016-Jul-07 18:32N 66°30' E 012°06'0 0.0
2016-Jul-07 17:32N 66°30' E 012°06'0 0.0
2016-Jul-07 16:32N 66°30' E 012°06'  
Track history (hours):
 
Tides and Currents Weather Stations Pressure Air Temp Water Temp Dewpoint Dewpoint Depression Visibility Wind Speed Wind Dir Waves Ship Positions

Lovundjenta

Last reported at 2016-Jul-17 15:33 UTC. Time now 2016-Jul-29 12:07 UTC.
Position N 66°14' E 012°35'.
Warning: this ship's position is 11 days out of date.

Length 15 m.

MMSI: 257788900.

Date/timePositionNaut miles runAvg speedWind from/ knotsBaromVisibWave heightAir tempDewpointWater temp
2016-Jul-17 15:33N 66°14' E 012°35'  
2016-Jul-11 15:27N 66°28' E 012°13'4 4.7
2016-Jul-11 14:31N 66°30' E 012°04'1 1.1
2016-Jul-11 13:32N 66°30' E 012°06'0 0.0
2016-Jul-11 12:32N 66°30' E 012°06'3 0.1
2016-Jul-10 10:06N 66°28' E 012°13'3 5.7
2016-Jul-10 09:31N 66°30' E 012°06'0 0.0
2016-Jul-09 22:32N 66°30' E 012°06'3 0.4
2016-Jul-09 15:30N 66°28' E 012°12'7 5.5
2016-Jul-09 14:16N 66°23' E 012°22'1012.0
2016-Jul-09 13:27N 66°30' E 012°06'1 0.6
2016-Jul-09 12:33N 66°31' E 012°07'1 1.0
2016-Jul-09 11:19N 66°32' E 012°07'0 0.3
2016-Jul-09 10:08N 66°32' E 012°07'2 3.7
2016-Jul-09 09:34N 66°30' E 012°06'0 0.0
2016-Jul-09 00:33N 66°30' E 012°06'0 0.0
2016-Jul-08 23:31N 66°30' E 012°06'0 0.1
2016-Jul-08 22:33N 66°30' E 012°06'0 0.0
2016-Jul-08 21:32N 66°30' E 012°06'3 0.2
2016-Jul-08 01:26N 66°30' E 012°14'3 3.6
2016-Jul-08 00:33N 66°30' E 012°06'0 0.0
2016-Jul-07 23:33N 66°30' E 012°06'0 0.1
2016-Jul-07 22:33N 66°30' E 012°06'0 0.1
2016-Jul-07 21:32N 66°30' E 012°06'0 0.0
2016-Jul-07 20:32N 66°30' E 012°06'0 0.0
2016-Jul-07 19:32N 66°30' E 012°06'0 0.0
2016-Jul-07 18:32N 66°30' E 012°06'0 0.0
2016-Jul-07 17:32N 66°30' E 012°06'0 0.0
2016-Jul-07 16:32N 66°30' E 012°06'  

Dump ship's entire track history